createdAt,value
2019-05-13T00:00:45.822Z,99349.70
2019-05-13T00:01:54.000Z,99349.81
2019-05-13T00:03:03.369Z,99358.67
2019-05-13T00:04:09.351Z,99356.35
2019-05-13T00:05:16.410Z,99356.69
2019-05-13T00:06:23.805Z,99362.66
2019-05-13T00:07:31.027Z,99361.33
2019-05-13T00:08:39.236Z,99369.01
2019-05-13T00:09:46.457Z,99364.03
2019-05-13T00:10:54.162Z,99370.67
2019-05-13T00:12:01.244Z,99374.73
2019-05-13T00:13:07.714Z,99374.36
2019-05-13T00:14:14.715Z,99384.27
2019-05-13T00:15:21.235Z,99381.77
2019-05-13T00:16:28.435Z,99389.33
2019-05-13T00:17:35.165Z,99392.83
2019-05-13T00:18:44.409Z,99393.36
2019-05-13T00:19:53.214Z,99396.02
2019-05-13T00:20:59.935Z,99394.74
2019-05-13T00:22:06.366Z,99398.31
2019-05-13T00:23:14.524Z,99398.00
2019-05-13T00:24:24.133Z,99402.88
2019-05-13T00:25:30.749Z,99391.27
2019-05-13T00:26:37.420Z,99399.66
2019-05-13T00:27:44.688Z,99402.88
2019-05-13T00:28:53.406Z,99403.93
2019-05-13T00:30:00.317Z,99400.63
2019-05-13T00:31:07.065Z,99398.77
2019-05-13T00:32:14.301Z,99401.42
2019-05-13T00:33:20.835Z,99399.30
2019-05-13T00:34:28.013Z,99404.53
2019-05-13T00:35:34.392Z,99405.87
2019-05-13T00:36:44.354Z,99402.94
2019-05-13T00:37:49.770Z,99401.66
2019-05-13T00:38:56.926Z,99397.82
2019-05-13T00:40:04.122Z,99402.66
2019-05-13T00:41:11.038Z,99404.55
2019-05-13T00:42:17.681Z,99407.47
2019-05-13T00:43:24.872Z,99401.88
2019-05-13T00:44:33.578Z,99401.03
2019-05-13T00:45:39.989Z,99403.20
2019-05-13T00:46:46.349Z,99404.20
2019-05-13T00:47:53.759Z,99399.50
2019-05-13T00:49:00.216Z,99402.09
2019-05-13T00:50:07.679Z,99398.91
2019-05-13T00:51:14.284Z,99406.68
2019-05-13T00:52:23.465Z,99405.97
2019-05-13T00:53:30.398Z,99404.75
2019-05-13T00:54:37.388Z,99407.45
2019-05-13T00:55:44.472Z,99406.47
2019-05-13T00:56:51.568Z,99406.48
2019-05-13T00:57:58.016Z,99402.94
2019-05-13T00:59:05.010Z,99399.34
2019-05-13T01:00:13.829Z,99407.95
2019-05-13T01:01:20.206Z,99395.02
2019-05-13T01:02:26.578Z,99403.69
2019-05-13T01:03:35.245Z,99402.70
2019-05-13T01:04:41.606Z,99411.24
2019-05-13T01:05:49.614Z,99396.16
2019-05-13T01:06:56.251Z,99404.96
2019-05-13T01:08:04.281Z,99401.17
2019-05-13T01:09:10.970Z,99401.03
2019-05-13T01:10:18.040Z,99402.30
2019-05-13T01:11:24.504Z,99408.61
2019-05-13T01:12:31.424Z,99410.18
2019-05-13T01:13:38.176Z,99410.18
2019-05-13T01:14:45.276Z,99406.87
2019-05-13T01:15:51.656Z,99407.58
2019-05-13T01:16:58.884Z,99411.23
2019-05-13T01:18:05.526Z,99399.15
2019-05-13T01:19:14.327Z,99406.31
2019-05-13T01:20:20.728Z,99401.95
2019-05-13T01:21:27.900Z,99407.41
2019-05-13T01:22:34.563Z,99411.63
2019-05-13T01:23:43.886Z,99417.76
2019-05-13T01:24:49.859Z,99411.63
2019-05-13T01:25:56.926Z,99416.42
2019-05-13T01:27:04.072Z,99416.42
2019-05-13T01:28:13.464Z,99421.45
2019-05-13T01:29:19.655Z,99414.48
2019-05-13T01:30:27.051Z,99418.12
2019-05-13T01:31:34.405Z,99415.42
2019-05-13T01:32:41.679Z,99416.05
2019-05-13T01:33:48.315Z,99420.73
2019-05-13T01:34:55.277Z,99420.55
2019-05-13T01:36:04.977Z,99408.70
2019-05-13T01:37:10.269Z,99409.64
2019-05-13T01:38:16.606Z,99424.12
2019-05-13T01:39:24.298Z,99415.34
2019-05-13T01:40:30.883Z,99418.83
2019-05-13T01:41:37.887Z,99419.34
2019-05-13T01:42:44.656Z,99424.20
2019-05-13T01:43:54.204Z,99425.34
2019-05-13T01:44:59.800Z,99428.58
2019-05-13T01:46:07.166Z,99435.94
2019-05-13T01:47:13.748Z,99430.63
2019-05-13T01:48:20.802Z,99430.22
2019-05-13T01:49:27.181Z,99424.20
2019-05-13T01:50:34.225Z,99432.16
2019-05-13T01:51:40.672Z,99425.92
2019-05-13T01:52:48.493Z,99428.91
2019-05-13T01:53:54.988Z,99429.17
2019-05-13T01:55:04.106Z,99435.38
2019-05-13T01:56:11.561Z,99435.18
2019-05-13T01:57:18.493Z,99432.25
2019-05-13T01:58:24.895Z,99436.11
2019-05-13T01:59:33.977Z,99432.47
2019-05-13T02:00:44.024Z,99431.86
2019-05-13T02:01:50.377Z,99436.70
2019-05-13T02:02:57.104Z,99428.75
2019-05-13T02:04:04.276Z,99431.86
2019-05-13T02:05:10.923Z,99438.68
2019-05-13T02:06:17.811Z,99439.22
2019-05-13T02:07:24.457Z,99429.87
2019-05-13T02:08:33.656Z,99438.63
2019-05-13T02:09:40.363Z,99437.24
2019-05-13T02:10:53.857Z,99436.84
2019-05-13T02:11:59.197Z,99438.96
2019-05-13T02:13:06.128Z,99441.28
2019-05-13T02:14:13.251Z,99442.06
2019-05-13T02:15:20.480Z,99449.58
2019-05-13T02:16:27.168Z,99446.24
2019-05-13T02:17:34.273Z,99444.33
2019-05-13T02:18:40.624Z,99452.53
2019-05-13T02:19:47.521Z,99453.13
2019-05-13T02:20:56.037Z,99454.54
2019-05-13T02:22:04.014Z,99452.81
2019-05-13T02:23:10.988Z,99448.16
2019-05-13T02:24:18.032Z,99452.81
2019-05-13T02:25:24.987Z,99459.39
2019-05-13T02:26:31.891Z,99452.08
2019-05-13T02:27:38.269Z,99457.59
2019-05-13T02:28:45.243Z,99455.16
2019-05-13T02:29:53.920Z,99454.45
2019-05-13T02:31:00.693Z,99450.58
2019-05-13T02:32:07.136Z,99456.42
2019-05-13T02:33:14.066Z,99457.27
2019-05-13T02:34:23.223Z,99451.86
2019-05-13T02:35:32.259Z,99448.79
2019-05-13T02:36:37.298Z,99463.48
2019-05-13T02:37:44.255Z,99457.39
2019-05-13T02:38:53.190Z,99461.17
2019-05-13T02:40:03.205Z,99460.73
2019-05-13T02:41:08.955Z,99458.34
2019-05-13T02:42:15.954Z,99455.58
2019-05-13T02:43:23.676Z,99459.13
2019-05-13T02:44:33.317Z,99446.67
2019-05-13T02:45:42.676Z,99448.85
2019-05-13T02:46:48.373Z,99451.31
2019-05-13T02:47:54.874Z,99444.63
2019-05-13T02:49:03.279Z,99451.86
2019-05-13T02:50:12.878Z,99452.19
2019-05-13T02:51:23.067Z,99446.60
2019-05-13T02:52:28.306Z,99444.41
2019-05-13T02:53:35.597Z,99446.75
2019-05-13T02:54:42.679Z,99467.58
2019-05-13T02:55:52.440Z,99448.78
2019-05-13T02:56:57.931Z,99462.55
2019-05-13T02:58:04.922Z,99472.75
2019-05-13T02:59:13.254Z,99461.95
2019-05-13T03:00:23.432Z,99457.23
2019-05-13T03:01:28.867Z,99449.42
2019-05-13T03:02:35.839Z,99452.61
2019-05-13T03:03:44.385Z,99449.88
2019-05-13T03:04:52.381Z,99449.15
2019-05-13T03:05:59.023Z,99454.40
2019-05-13T03:07:05.980Z,99458.63
2019-05-13T03:08:12.944Z,99452.59
2019-05-13T03:09:22.964Z,99453.98
2019-05-13T03:10:28.641Z,99450.86
2019-05-13T03:11:35.843Z,99457.48
2019-05-13T03:12:42.893Z,99453.19
2019-05-13T03:13:52.905Z,99465.89
2019-05-13T03:14:58.251Z,99450.39
2019-05-13T03:16:18.571Z,99461.84
2019-05-13T03:17:29.060Z,99458.31
2019-05-13T03:18:35.973Z,99462.28
2019-05-13T03:19:43.529Z,99450.45
2019-05-13T03:20:53.014Z,99455.59
2019-05-13T03:21:59.039Z,99461.27
2019-05-13T03:23:05.797Z,99470.38
2019-05-13T03:24:13.507Z,99461.73
2019-05-13T03:25:22.681Z,99472.09
2019-05-13T03:26:32.024Z,99478.44
2019-05-13T03:27:36.806Z,99482.48
2019-05-13T03:28:44.211Z,99480.47
2019-05-13T03:29:53.392Z,99489.87
2019-05-13T03:31:05.438Z,99491.20
2019-05-13T03:32:08.034Z,99491.95
2019-05-13T03:33:19.224Z,99496.72
2019-05-13T03:34:26.473Z,99484.77
2019-05-13T03:35:36.593Z,99485.56
2019-05-13T03:36:45.836Z,99482.67
2019-05-13T03:37:52.619Z,99487.61
2019-05-13T03:39:05.796Z,99487.24
2019-05-13T03:40:07.433Z,99483.23
2019-05-13T03:41:17.859Z,99483.12
2019-05-13T03:42:26.979Z,99489.45
2019-05-13T03:43:33.647Z,99485.14
2019-05-13T03:44:45.143Z,99487.52
2019-05-13T03:45:54.723Z,99488.94
2019-05-13T03:47:04.530Z,99485.88
2019-05-13T03:48:12.517Z,99480.27
2019-05-13T03:49:23.436Z,99491.61
2019-05-13T03:50:34.163Z,99490.28
2019-05-13T03:51:42.672Z,99483.97
2019-05-13T03:52:47.730Z,99484.58
2019-05-13T03:53:55.100Z,99487.62
2019-05-13T03:55:03.115Z,99485.69
2019-05-13T03:56:12.889Z,99488.16
2019-05-13T03:57:18.680Z,99493.70
2019-05-13T03:58:26.276Z,99491.36
2019-05-13T03:59:33.582Z,99489.39
2019-05-13T04:00:42.669Z,99493.70
2019-05-13T04:01:52.331Z,99495.38
2019-05-13T04:02:58.128Z,99493.91
2019-05-13T04:04:04.646Z,99498.28
2019-05-13T04:05:13.317Z,99498.02
2019-05-13T04:06:22.341Z,99501.09
2019-05-13T04:07:32.416Z,99500.36
2019-05-13T04:08:37.282Z,99501.20
2019-05-13T04:09:44.316Z,99501.88
2019-05-13T04:10:52.520Z,99501.55
2019-05-13T04:12:02.835Z,99497.56
2019-05-13T04:13:08.185Z,99493.00
2019-05-13T04:14:15.494Z,99498.98
2019-05-13T04:15:23.609Z,99501.63
2019-05-13T04:16:32.313Z,99502.95
2019-05-13T04:17:38.954Z,99505.13
2019-05-13T04:18:46.872Z,99506.05
2019-05-13T04:19:53.272Z,99509.74
2019-05-13T04:21:02.774Z,99512.81
2019-05-13T04:22:08.876Z,99513.22
2019-05-13T04:23:16.435Z,99515.39
2019-05-13T04:24:23.321Z,99520.95
2019-05-13T04:25:32.212Z,99516.77
2019-05-13T04:26:38.834Z,99512.41
2019-05-13T04:27:45.906Z,99508.62
2019-05-13T04:28:52.831Z,99515.98
2019-05-13T04:30:03.417Z,99522.81
2019-05-13T04:31:09.078Z,99517.26
2019-05-13T04:32:17.556Z,99519.06
2019-05-13T04:33:24.009Z,99516.13
2019-05-13T04:34:33.816Z,99522.81
2019-05-13T04:35:42.380Z,99517.66
2019-05-13T04:36:48.211Z,99520.30
2019-05-13T04:37:54.731Z,99521.43
2019-05-13T04:39:03.197Z,99525.34
2019-05-13T04:40:12.672Z,99519.59
2019-05-13T04:41:22.575Z,99527.48
2019-05-13T04:42:27.693Z,99520.15
2019-05-13T04:43:35.818Z,99525.25
2019-05-13T04:44:43.001Z,99527.16
2019-05-13T04:45:52.440Z,99521.31
2019-05-13T04:46:59.121Z,99525.02
2019-05-13T04:48:06.158Z,99524.95
2019-05-13T04:49:12.714Z,99528.65
2019-05-13T04:50:22.393Z,99527.59
2019-05-13T04:51:28.017Z,99529.80
2019-05-13T04:52:35.056Z,99530.72
2019-05-13T04:53:42.586Z,99530.83
2019-05-13T04:54:52.765Z,99530.69
2019-05-13T04:55:58.116Z,99528.92
2019-05-13T04:57:05.281Z,99534.83
2019-05-13T04:58:13.029Z,99533.37
2019-05-13T04:59:22.746Z,99534.76
2019-05-13T05:00:49.808Z,99538.02
2019-05-13T05:02:15.610Z,99542.70
2019-05-13T05:03:53.243Z,99538.22
2019-05-13T05:05:21.629Z,99538.00
2019-05-13T05:06:32.843Z,99543.53
2019-05-13T05:08:12.034Z,99541.79
2019-05-13T05:09:42.901Z,99541.48
2019-05-13T05:10:57.005Z,99548.96
2019-05-13T05:12:36.463Z,99545.70
2019-05-13T05:14:19.221Z,99543.58
2019-05-13T05:15:54.025Z,99547.69
2019-05-13T05:17:06.557Z,99545.31
2019-05-13T05:18:37.477Z,99552.25
2019-05-13T05:20:07.624Z,99550.95
2019-05-13T05:21:26.864Z,99554.53
2019-05-13T05:22:57.471Z,99559.50
2019-05-13T05:24:28.202Z,99555.38
2019-05-13T05:25:37.776Z,99564.41
2019-05-13T05:27:02.242Z,99567.60
2019-05-13T05:28:41.825Z,99565.73
2019-05-13T05:29:57.242Z,99564.41
2019-05-13T05:31:32.661Z,99562.95
2019-05-13T05:33:11.382Z,99568.32
2019-05-13T05:34:21.902Z,99555.98
2019-05-13T05:35:52.876Z,99564.68
2019-05-13T05:37:18.493Z,99562.71
2019-05-13T05:38:57.356Z,99565.06
2019-05-13T05:40:05.525Z,99564.92
2019-05-13T05:41:15.453Z,99564.55
2019-05-13T05:42:24.945Z,99565.94
2019-05-13T05:43:32.286Z,99569.78
2019-05-13T05:44:42.179Z,99564.67
2019-05-13T05:45:51.162Z,99574.44
2019-05-13T05:47:02.620Z,99569.64
2019-05-13T05:48:09.158Z,99569.33
2019-05-13T05:49:17.579Z,99571.45
2019-05-13T05:50:24.928Z,99570.39
2019-05-13T05:51:33.281Z,99567.16
2019-05-13T05:52:42.101Z,99568.16
2019-05-13T05:53:51.869Z,99578.21
2019-05-13T05:55:02.388Z,99571.61
2019-05-13T05:56:12.369Z,99568.55
2019-05-13T05:57:22.244Z,99574.28
2019-05-13T05:58:31.544Z,99574.14
2019-05-13T05:59:42.639Z,99568.42
2019-05-13T06:00:52.043Z,99573.87
2019-05-13T06:02:01.923Z,99576.56
2019-05-13T06:03:08.772Z,99578.95
2019-05-13T06:04:15.592Z,99579.13
2019-05-13T06:05:24.565Z,99577.44
2019-05-13T06:06:32.895Z,99577.19
2019-05-13T06:07:42.139Z,99573.45
2019-05-13T06:08:51.494Z,99581.92
2019-05-13T06:09:57.809Z,99586.78
2019-05-13T06:11:04.950Z,99584.47
2019-05-13T06:12:12.787Z,99587.80
2019-05-13T06:13:21.465Z,99583.95
2019-05-13T06:14:27.956Z,99588.86
2019-05-13T06:15:35.428Z,99586.34
2019-05-13T06:16:42.674Z,99590.21
2019-05-13T06:17:51.694Z,99588.81
2019-05-13T06:18:58.004Z,99582.12
2019-05-13T06:20:08.970Z,99585.36
2019-05-13T06:21:15.831Z,99584.17
2019-05-13T06:22:22.705Z,99588.92
2019-05-13T06:23:31.333Z,99591.14
2019-05-13T06:24:42.136Z,99591.88
2019-05-13T06:25:52.404Z,99590.95
2019-05-13T06:26:58.608Z,99592.50
2019-05-13T06:28:05.536Z,99597.53
2019-05-13T06:29:12.455Z,99598.27
2019-05-13T06:30:21.540Z,99607.70
2019-05-13T06:31:27.788Z,99604.34
2019-05-13T06:32:34.467Z,99601.22
2019-05-13T06:33:42.179Z,99603.02
2019-05-13T06:34:52.473Z,99608.81
2019-05-13T06:36:01.187Z,99600.45
2019-05-13T06:37:07.993Z,99602.47
2019-05-13T06:38:14.841Z,99614.17
2019-05-13T06:39:22.201Z,99604.77
2019-05-13T06:40:29.121Z,99608.84
2019-05-13T06:41:37.302Z,99613.16
2019-05-13T06:42:44.144Z,99610.98
2019-05-13T06:43:52.421Z,99610.34
2019-05-13T06:45:01.734Z,99611.16
2019-05-13T06:46:08.221Z,99609.41
2019-05-13T06:47:16.547Z,99609.41
2019-05-13T06:48:25.737Z,99612.31
2019-05-13T06:49:32.777Z,99615.81
2019-05-13T06:50:41.637Z,99619.06
2019-05-13T06:51:52.723Z,99624.23
2019-05-13T06:53:01.536Z,99625.98
2019-05-13T06:54:11.303Z,99629.22
2019-05-13T06:55:21.272Z,99619.42
2019-05-13T06:56:28.313Z,99629.52
2019-05-13T06:57:34.963Z,99628.32
2019-05-13T06:58:41.907Z,99631.61
2019-05-13T06:59:52.381Z,99626.23
2019-05-13T07:01:03.112Z,99629.65
2019-05-13T07:02:07.957Z,99633.57
2019-05-13T07:03:14.686Z,99627.92
2019-05-13T07:04:22.023Z,99634.97
2019-05-13T07:05:28.859Z,99635.09
2019-05-13T07:06:35.444Z,99638.51
2019-05-13T07:07:42.546Z,99636.16
2019-05-13T07:08:52.234Z,99640.48
2019-05-13T07:10:02.248Z,99642.41
2019-05-13T07:11:17.604Z,99642.71
2019-05-13T07:12:16.039Z,99640.06
2019-05-13T07:13:23.626Z,99649.59
2019-05-13T07:14:32.610Z,99647.58
2019-05-13T07:15:41.647Z,99648.56
2019-05-13T07:16:48.721Z,99656.59
2019-05-13T07:17:55.372Z,99654.97
2019-05-13T07:19:02.727Z,99654.20
2019-05-13T07:20:11.673Z,99659.53
2019-05-13T07:21:18.748Z,99668.98
2019-05-13T07:22:26.872Z,99662.92
2019-05-13T07:23:37.068Z,99669.41
2019-05-13T07:24:45.550Z,99671.09
2019-05-13T07:25:52.796Z,99663.36
2019-05-13T07:27:01.847Z,99672.84
2019-05-13T07:28:09.027Z,99672.13
2019-05-13T07:29:15.930Z,99671.17
2019-05-13T07:30:34.729Z,99671.86
2019-05-13T07:31:42.238Z,99663.41
2019-05-13T07:32:49.127Z,99670.19
2019-05-13T07:33:55.825Z,99663.27
2019-05-13T07:35:03.997Z,99671.48
2019-05-13T07:36:13.350Z,99672.03
2019-05-13T07:37:22.043Z,99672.46
2019-05-13T07:38:32.350Z,99671.09
2019-05-13T07:39:47.561Z,99670.38
2019-05-13T07:40:55.047Z,99664.68
2019-05-13T07:41:57.495Z,99668.49
2019-05-13T07:43:01.705Z,99671.34
2019-05-13T07:44:03.850Z,99667.67
2019-05-13T07:45:06.137Z,99666.22
2019-05-13T07:46:08.262Z,99662.71
2019-05-13T07:47:11.689Z,99668.06
2019-05-13T07:48:21.065Z,99667.55
2019-05-13T07:49:17.803Z,99670.58
2019-05-13T07:50:21.904Z,99663.53
2019-05-13T07:51:23.688Z,99675.83
2019-05-13T07:52:25.724Z,99669.00
2019-05-13T07:53:28.979Z,99670.50
2019-05-13T07:54:32.912Z,99680.70
2019-05-13T07:55:34.965Z,99682.88
2019-05-13T07:56:37.065Z,99684.69
2019-05-13T07:57:39.014Z,99679.09
2019-05-13T07:58:41.852Z,99687.25
2019-05-13T07:59:44.059Z,99685.24
2019-05-13T08:00:46.197Z,99683.84
2019-05-13T08:01:48.355Z,99679.86
2019-05-13T08:02:52.292Z,99680.58
2019-05-13T08:03:54.176Z,99687.03
2019-05-13T08:04:56.033Z,99684.89
2019-05-13T08:05:58.321Z,99689.63
2019-05-13T08:07:01.994Z,99688.70
2019-05-13T08:08:05.032Z,99689.43
2019-05-13T08:09:07.564Z,99681.91
2019-05-13T08:10:11.614Z,99680.02
2019-05-13T08:11:14.053Z,99683.15
2019-05-13T08:12:17.753Z,99679.59
2019-05-13T08:13:22.284Z,99681.00
2019-05-13T08:14:23.999Z,99685.72
2019-05-13T08:15:25.894Z,99678.19
2019-05-13T08:16:32.129Z,99680.08
2019-05-13T08:17:34.132Z,99682.67
2019-05-13T08:18:36.023Z,99677.98
2019-05-13T08:19:38.022Z,99675.75
2019-05-13T08:20:42.035Z,99678.74
2019-05-13T08:21:44.274Z,99677.16
2019-05-13T08:22:46.244Z,99691.05
2019-05-13T08:23:48.756Z,99690.44
2019-05-13T08:24:54.056Z,99695.38
2019-05-13T08:25:54.932Z,99691.72
2019-05-13T08:26:57.021Z,99694.16
2019-05-13T08:27:59.018Z,99697.91
2019-05-13T08:29:05.387Z,99702.22
2019-05-13T08:30:08.504Z,99700.14
2019-05-13T08:31:12.042Z,99702.15
2019-05-13T08:32:14.101Z,99704.02
2019-05-13T08:33:16.162Z,99707.11
2019-05-13T08:34:18.236Z,99707.45
2019-05-13T08:35:22.437Z,99706.28
2019-05-13T08:36:24.568Z,99703.42
2019-05-13T08:37:26.832Z,99702.78
2019-05-13T08:38:32.009Z,99706.67
2019-05-13T08:39:38.445Z,99718.59
2019-05-13T08:40:38.023Z,99706.54
2019-05-13T08:41:42.355Z,99706.41
2019-05-13T08:42:45.052Z,99707.61
2019-05-13T08:43:47.145Z,99705.61
2019-05-13T08:44:52.019Z,99700.83
2019-05-13T08:45:55.638Z,99698.56
2019-05-13T08:46:58.927Z,99696.08
2019-05-13T08:48:02.190Z,99700.34
2019-05-13T08:49:06.351Z,99697.00
2019-05-13T08:50:11.925Z,99695.58
2019-05-13T08:51:13.825Z,99700.09
2019-05-13T08:52:17.374Z,99694.83
2019-05-13T08:53:21.034Z,99692.06
2019-05-13T08:54:22.818Z,99703.13
2019-05-13T08:55:24.799Z,99697.89
2019-05-13T08:56:26.746Z,99699.12
2019-05-13T08:57:28.781Z,99698.32
2019-05-13T08:58:32.022Z,99699.36
2019-05-13T08:59:34.238Z,99693.08
2019-05-13T09:00:52.899Z,99697.27
2019-05-13T09:01:55.572Z,99701.31
2019-05-13T09:02:57.623Z,99698.80
2019-05-13T09:04:02.339Z,99703.78
2019-05-13T09:05:06.844Z,99704.85
2019-05-13T09:06:11.499Z,99709.42
2019-05-13T09:07:13.434Z,99708.16
2019-05-13T09:08:16.409Z,99711.97
2019-05-13T09:09:18.569Z,99714.14
2019-05-13T09:10:21.441Z,99703.48
2019-05-13T09:11:26.931Z,99705.32
2019-05-13T09:12:35.175Z,99703.27
2019-05-13T09:13:34.506Z,99694.38
2019-05-13T09:14:36.796Z,99693.69
2019-05-13T09:15:42.248Z,99707.73
2019-05-13T09:16:44.494Z,99701.66
2019-05-13T09:17:46.629Z,99700.24
2019-05-13T09:18:51.795Z,99707.08
2019-05-13T09:19:54.634Z,99707.84
2019-05-13T09:20:56.387Z,99710.30
2019-05-13T09:22:02.813Z,99709.70
2019-05-13T09:23:03.745Z,99710.19
2019-05-13T09:24:20.664Z,99715.83
2019-05-13T09:25:12.788Z,99708.86
2019-05-13T09:26:14.392Z,99717.92
2019-05-13T09:27:16.464Z,99715.28
2019-05-13T09:28:18.802Z,99717.58
2019-05-13T09:29:22.528Z,99708.99
2019-05-13T09:30:27.257Z,99715.34
2019-05-13T09:31:28.821Z,99725.80
2019-05-13T09:32:31.779Z,99713.23
2019-05-13T09:33:34.080Z,99716.55
2019-05-13T09:34:36.075Z,99718.52
2019-05-13T09:35:38.125Z,99717.67
2019-05-13T09:36:41.742Z,99721.23
2019-05-13T09:37:44.125Z,99722.30
2019-05-13T09:38:46.298Z,99722.73
2019-05-13T09:39:51.646Z,99716.47
2019-05-13T09:40:54.119Z,99724.11
2019-05-13T09:41:56.102Z,99726.29
2019-05-13T09:42:58.318Z,99728.87
2019-05-13T09:44:02.213Z,99726.17
2019-05-13T09:45:05.711Z,99722.53
2019-05-13T09:46:08.399Z,99726.66
2019-05-13T09:47:12.415Z,99724.95
2019-05-13T09:48:14.607Z,99727.05
2019-05-13T09:49:20.070Z,99726.48
2019-05-13T09:50:29.299Z,99724.44
2019-05-13T09:51:26.051Z,99724.30
2019-05-13T09:52:28.216Z,99723.74
2019-05-13T09:53:32.517Z,99727.93
2019-05-13T09:54:35.092Z,99727.42
2019-05-13T09:55:37.047Z,99732.13
2019-05-13T09:56:42.426Z,99724.17
2019-05-13T09:57:44.395Z,99729.19
2019-05-13T09:58:46.336Z,99736.80
2019-05-13T09:59:48.298Z,99730.42
2019-05-13T10:00:52.621Z,99736.49
2019-05-13T10:01:54.368Z,99734.06
2019-05-13T10:02:56.418Z,99741.23
2019-05-13T10:03:58.582Z,99737.26
2019-05-13T10:05:02.276Z,99741.09
2019-05-13T10:06:04.636Z,99733.60
2019-05-13T10:07:08.626Z,99736.77
2019-05-13T10:08:12.513Z,99733.39
2019-05-13T10:09:14.920Z,99734.58
2019-05-13T10:10:17.040Z,99730.53
2019-05-13T10:11:21.527Z,99723.98
2019-05-13T10:12:24.544Z,99734.30
2019-05-13T10:13:27.112Z,99726.78
2019-05-13T10:14:29.356Z,99720.02
2019-05-13T10:15:32.909Z,99727.55
2019-05-13T10:16:37.280Z,99733.23
2019-05-13T10:17:42.782Z,99724.85
2019-05-13T10:18:43.979Z,99727.16
2019-05-13T10:19:45.970Z,99723.80
2019-05-13T10:20:57.877Z,99725.72
2019-05-13T10:21:59.423Z,99724.23
2019-05-13T10:23:01.836Z,99728.38
2019-05-13T10:24:04.646Z,99714.91
2019-05-13T10:25:12.767Z,99726.83
2019-05-13T10:26:15.301Z,99725.42
2019-05-13T10:27:18.985Z,99721.40
2019-05-13T10:28:22.466Z,99725.16
2019-05-13T10:29:24.611Z,99726.75
2019-05-13T10:30:26.382Z,99719.78
2019-05-13T10:31:28.543Z,99717.42
2019-05-13T10:32:32.445Z,99719.91
2019-05-13T10:33:34.788Z,99719.52
2019-05-13T10:34:36.898Z,99721.45
2019-05-13T10:35:42.926Z,99724.44
2019-05-13T10:36:45.163Z,99721.48
2019-05-13T10:37:49.690Z,99716.61
2019-05-13T10:38:53.421Z,99715.72
2019-05-13T10:39:55.334Z,99715.72
2019-05-13T10:40:57.683Z,99716.48
2019-05-13T10:42:03.125Z,99719.48
2019-05-13T10:43:04.192Z,99723.95
2019-05-13T10:44:06.030Z,99719.22
2019-05-13T10:45:08.249Z,99717.81
2019-05-13T10:46:12.717Z,99710.92
2019-05-13T10:47:14.141Z,99726.53
2019-05-13T10:48:16.149Z,99716.02
2019-05-13T10:49:18.455Z,99725.77
2019-05-13T10:50:27.426Z,99719.22
2019-05-13T10:51:27.299Z,99724.31
2019-05-13T10:52:31.756Z,99722.30
2019-05-13T10:53:33.384Z,99716.58
2019-05-13T10:54:35.144Z,99720.89
2019-05-13T10:55:37.217Z,99717.34
2019-05-13T10:56:39.488Z,99716.94
2019-05-13T10:57:42.402Z,99715.33
2019-05-13T10:58:44.699Z,99724.52
2019-05-13T10:59:46.862Z,99720.36
2019-05-13T11:00:52.312Z,99719.30
2019-05-13T11:01:54.551Z,99724.17
2019-05-13T11:02:56.476Z,99717.84
2019-05-13T11:03:58.583Z,99715.45
2019-05-13T11:05:02.981Z,99719.86
2019-05-13T11:06:04.793Z,99711.69
2019-05-13T11:07:07.189Z,99712.11
2019-05-13T11:08:09.410Z,99715.83
2019-05-13T11:09:12.993Z,99717.27
2019-05-13T11:10:22.246Z,99713.23
2019-05-13T11:11:24.753Z,99714.61
2019-05-13T11:12:28.633Z,99716.22
2019-05-13T11:13:50.121Z,99714.61
2019-05-13T11:14:34.070Z,99721.66
2019-05-13T11:15:41.142Z,99722.02
2019-05-13T11:16:42.700Z,99718.37
2019-05-13T11:17:46.534Z,99714.15
2019-05-13T11:18:51.698Z,99718.18
2019-05-13T11:19:53.565Z,99721.05
2019-05-13T11:20:55.502Z,99709.13
2019-05-13T11:21:57.581Z,99708.91
2019-05-13T11:22:59.504Z,99705.14
2019-05-13T11:24:03.425Z,99708.55
2019-05-13T11:25:05.561Z,99713.08
2019-05-13T11:26:07.642Z,99713.72
2019-05-13T11:27:11.938Z,99705.95
2019-05-13T11:28:13.985Z,99705.55
2019-05-13T11:29:19.205Z,99710.72
2019-05-13T11:30:23.621Z,99711.25
2019-05-13T11:31:25.380Z,99698.13
2019-05-13T11:32:27.083Z,99709.52
2019-05-13T11:33:31.583Z,99708.97
2019-05-13T11:34:33.477Z,99711.06
2019-05-13T11:35:35.489Z,99711.63
2019-05-13T11:36:37.446Z,99711.90
2019-05-13T11:37:43.494Z,99710.93
2019-05-13T11:38:45.051Z,99710.78
2019-05-13T11:39:47.564Z,99702.48
2019-05-13T11:40:52.372Z,99699.55
2019-05-13T11:41:53.717Z,99701.50
2019-05-13T11:42:55.723Z,99698.55
2019-05-13T11:44:11.891Z,99698.48
2019-05-13T11:45:02.011Z,99704.27
2019-05-13T11:46:06.835Z,99698.62
2019-05-13T11:47:09.286Z,99703.86
2019-05-13T11:48:13.135Z,99709.05
2019-05-13T11:49:15.606Z,99709.05
2019-05-13T11:50:18.364Z,99717.81
2019-05-13T11:51:24.126Z,99711.14
2019-05-13T11:52:25.152Z,99705.88
2019-05-13T11:53:32.908Z,99709.09
2019-05-13T11:54:31.725Z,99710.42
2019-05-13T11:55:33.798Z,99710.98
2019-05-13T11:56:35.474Z,99708.55
2019-05-13T11:57:38.657Z,99715.05
2019-05-13T11:58:43.206Z,99714.28
2019-05-13T11:59:46.241Z,99721.89
2019-05-13T12:00:53.214Z,99711.20
2019-05-13T12:01:55.222Z,99709.27
2019-05-13T12:02:57.455Z,99711.82
2019-05-13T12:04:02.453Z,99716.69
2019-05-13T12:05:08.624Z,99707.58
2019-05-13T12:06:12.792Z,99709.19
2019-05-13T12:07:14.803Z,99705.82
2019-05-13T12:08:17.009Z,99707.02
2019-05-13T12:09:21.979Z,99706.05
2019-05-13T12:10:22.995Z,99709.19
2019-05-13T12:11:24.602Z,99705.88
2019-05-13T12:12:30.651Z,99713.72
2019-05-13T12:13:32.806Z,99706.04
2019-05-13T12:14:48.503Z,99703.58
2019-05-13T12:15:48.721Z,99702.47
2019-05-13T12:16:46.737Z,99708.41
2019-05-13T12:17:49.007Z,99701.48
2019-05-13T12:18:52.510Z,99700.30
2019-05-13T12:19:55.016Z,99705.13
2019-05-13T12:20:57.123Z,99705.91
2019-05-13T12:22:01.805Z,99708.12
2019-05-13T12:23:03.640Z,99701.38
2019-05-13T12:24:10.436Z,99702.57
2019-05-13T12:25:13.094Z,99701.09
2019-05-13T12:26:13.823Z,99702.05
2019-05-13T12:27:16.389Z,99699.47
2019-05-13T12:28:18.434Z,99703.02
2019-05-13T12:29:20.301Z,99706.38
2019-05-13T12:30:22.845Z,99706.32
2019-05-13T12:31:25.001Z,99702.88
2019-05-13T12:32:27.174Z,99707.16
2019-05-13T12:34:40.898Z,99707.14
2019-05-13T12:35:40.584Z,99698.86
2019-05-13T12:36:43.240Z,99712.41
2019-05-13T12:37:45.509Z,99708.78
2019-05-13T12:38:47.605Z,99704.16
2019-05-13T12:39:53.216Z,99703.47
2019-05-13T12:40:54.632Z,99706.02
2019-05-13T12:41:57.082Z,99701.09
2019-05-13T12:43:01.336Z,99708.62
2019-05-13T12:44:03.163Z,99703.30
2019-05-13T12:45:10.275Z,99701.94
2019-05-13T12:46:12.604Z,99693.23
2019-05-13T12:47:14.735Z,99692.29
2019-05-13T12:48:16.777Z,99694.53
2019-05-13T12:49:21.465Z,99694.98
2019-05-13T12:50:23.949Z,99699.95
2019-05-13T12:51:26.099Z,99697.80
2019-05-13T12:52:28.097Z,99695.08
2019-05-13T12:53:32.120Z,99698.95
2019-05-13T12:54:34.704Z,99703.66
2019-05-13T12:55:36.818Z,99699.95
2019-05-13T12:56:39.275Z,99694.53
2019-05-13T12:57:41.358Z,99694.30
2019-05-13T12:58:43.377Z,99698.95
2019-05-13T12:59:46.487Z,99703.45
2019-05-13T13:00:49.499Z,99704.91
2019-05-13T13:01:52.749Z,99707.72
2019-05-13T13:02:55.113Z,99708.70